createdAt,value
2022-10-10T00:01:29.586Z,4.88
2022-10-10T00:03:56.471Z,5.22
2022-10-10T00:06:23.818Z,6.03
2022-10-10T00:08:51.335Z,5.28
2022-10-10T00:11:21.736Z,4.90
2022-10-10T00:13:49.691Z,4.75
2022-10-10T00:16:17.794Z,5.32
2022-10-10T00:18:44.894Z,5.25
2022-10-10T00:21:11.700Z,4.97
2022-10-10T00:23:38.868Z,5.10
2022-10-10T00:26:08.961Z,5.68
2022-10-10T00:28:38.695Z,5.35
2022-10-10T00:31:09.996Z,5.45
2022-10-10T00:33:37.776Z,5.50
2022-10-10T00:36:06.344Z,5.30
2022-10-10T00:38:33.409Z,6.35
2022-10-10T00:41:00.976Z,5.20
2022-10-10T00:43:29.224Z,5.47
2022-10-10T00:45:56.303Z,5.20
2022-10-10T00:48:29.493Z,5.32
2022-10-10T00:51:10.869Z,5.55
2022-10-10T00:53:47.232Z,5.72
2022-10-10T00:56:19.356Z,5.40
2022-10-10T00:58:51.727Z,5.53
2022-10-10T01:01:18.664Z,5.70
2022-10-10T01:03:45.556Z,5.63
2022-10-10T01:06:12.640Z,5.13
2022-10-10T01:08:40.092Z,5.65
2022-10-10T01:11:34.032Z,5.78
2022-10-10T01:14:12.563Z,5.70
2022-10-10T01:17:12.020Z,5.22
2022-10-10T01:20:26.813Z,5.15
2022-10-10T01:23:30.037Z,5.60
2022-10-10T01:26:35.398Z,4.70
2022-10-10T01:29:34.234Z,5.32
2022-10-10T01:32:38.608Z,5.13
2022-10-10T01:35:14.968Z,5.65
2022-10-10T01:37:50.959Z,5.55
2022-10-10T01:40:33.087Z,5.88
2022-10-10T01:43:07.489Z,5.40
2022-10-10T01:45:34.733Z,5.80
2022-10-10T01:48:06.501Z,5.40
2022-10-10T01:50:50.049Z,5.93
2022-10-10T01:53:30.566Z,5.53
2022-10-10T01:56:17.970Z,5.90
2022-10-10T02:00:11.558Z,5.20
2022-10-10T02:02:49.639Z,5.20
2022-10-10T02:05:40.595Z,6.30
2022-10-10T02:08:18.079Z,6.00
2022-10-10T02:10:52.243Z,5.65
2022-10-10T02:13:21.044Z,5.50
2022-10-10T02:15:57.315Z,5.50
2022-10-10T02:18:31.323Z,5.28
2022-10-10T02:21:01.597Z,5.63
2022-10-10T02:23:28.603Z,5.55
2022-10-10T02:25:57.200Z,5.55
2022-10-10T02:28:59.202Z,5.47
2022-10-10T02:31:41.772Z,5.15
2022-10-10T02:34:18.040Z,5.90
2022-10-10T02:36:54.912Z,5.68
2022-10-10T02:39:27.181Z,5.75
2022-10-10T02:41:54.003Z,5.65
2022-10-10T02:44:22.963Z,5.55
2022-10-10T02:46:49.844Z,5.57
2022-10-10T02:49:31.421Z,5.88
2022-10-10T02:51:58.605Z,5.55
2022-10-10T02:54:25.836Z,5.97
2022-10-10T02:56:53.507Z,5.85
2022-10-10T02:59:20.620Z,5.82
2022-10-10T03:01:47.759Z,5.53
2022-10-10T03:04:14.664Z,5.35
2022-10-10T03:06:41.488Z,5.68
2022-10-10T03:09:08.637Z,5.70
2022-10-10T03:11:35.419Z,6.05
2022-10-10T03:14:02.120Z,5.47
2022-10-10T03:16:28.896Z,5.60
2022-10-10T03:18:55.599Z,5.90
2022-10-10T03:21:22.415Z,6.10
2022-10-10T03:23:49.217Z,6.22
2022-10-10T03:26:16.023Z,5.75
2022-10-10T03:28:42.805Z,5.70
2022-10-10T03:31:09.539Z,5.80
2022-10-10T03:33:36.375Z,6.30
2022-10-10T03:36:03.415Z,6.10
2022-10-10T03:38:30.162Z,5.47
2022-10-10T03:40:57.019Z,5.97
2022-10-10T03:43:23.744Z,5.82
2022-10-10T03:45:50.728Z,6.35
2022-10-10T03:48:17.635Z,5.70
2022-10-10T03:50:44.464Z,5.97
2022-10-10T03:53:11.327Z,5.57
2022-10-10T03:55:42.993Z,5.75
2022-10-10T03:58:11.533Z,5.97
2022-10-10T04:00:38.419Z,5.65
2022-10-10T04:03:06.509Z,6.28
2022-10-10T04:05:38.908Z,5.68
2022-10-10T04:08:07.037Z,5.68
2022-10-10T04:10:33.849Z,5.70
2022-10-10T04:13:00.606Z,5.32
2022-10-10T04:15:27.459Z,5.50
2022-10-10T04:17:54.235Z,5.38
2022-10-10T04:20:20.985Z,5.97
2022-10-10T04:22:48.039Z,5.93
2022-10-10T04:25:15.348Z,5.53
2022-10-10T04:27:43.611Z,5.80
2022-10-10T04:30:11.560Z,5.43
2022-10-10T04:32:38.883Z,5.93
2022-10-10T04:35:06.253Z,5.90
2022-10-10T04:37:34.243Z,5.70
2022-10-10T04:40:01.018Z,6.00
2022-10-10T04:42:27.866Z,6.20
2022-10-10T04:44:54.585Z,5.95
2022-10-10T04:47:21.350Z,5.68
2022-10-10T04:49:48.157Z,5.82
2022-10-10T04:52:14.986Z,5.53
2022-10-10T04:54:42.240Z,5.57
2022-10-10T04:57:09.014Z,5.68
2022-10-10T04:59:35.850Z,5.40
2022-10-10T05:02:02.732Z,5.88
2022-10-10T05:04:29.489Z,5.50
2022-10-10T05:06:56.246Z,5.93
2022-10-10T05:09:23.015Z,5.35
2022-10-10T05:11:49.844Z,5.85
2022-10-10T05:14:16.629Z,5.97
2022-10-10T05:16:43.369Z,5.95
2022-10-10T05:19:10.074Z,5.85
2022-10-10T05:21:36.960Z,6.32
2022-10-10T05:24:04.008Z,6.05
2022-10-10T05:26:30.767Z,5.45
2022-10-10T05:28:57.520Z,5.38
2022-10-10T05:31:24.302Z,6.05
2022-10-10T05:33:51.191Z,6.35
2022-10-10T05:36:17.964Z,5.63
2022-10-10T05:38:44.732Z,6.55
2022-10-10T05:41:12.470Z,5.57
2022-10-10T05:43:39.504Z,6.18
2022-10-10T05:46:06.380Z,6.55
2022-10-10T05:48:33.757Z,5.57
2022-10-10T05:51:01.503Z,6.05
2022-10-10T05:53:30.546Z,6.18
2022-10-10T05:55:57.562Z,6.47
2022-10-10T05:58:26.323Z,5.85
2022-10-10T06:00:53.632Z,6.00
2022-10-10T06:03:20.612Z,5.97
2022-10-10T06:05:51.592Z,6.32
2022-10-10T06:08:18.407Z,6.43
2022-10-10T06:10:46.586Z,6.43
2022-10-10T06:13:20.332Z,6.13
2022-10-10T06:15:52.009Z,6.20
2022-10-10T06:18:18.910Z,5.60
2022-10-10T06:20:45.728Z,6.40
2022-10-10T06:23:12.736Z,6.40
2022-10-10T06:25:41.219Z,5.97
2022-10-10T06:28:09.373Z,5.88
2022-10-10T06:30:44.469Z,6.10
2022-10-10T06:33:12.901Z,6.03
2022-10-10T06:35:45.352Z,6.53
2022-10-10T06:38:13.701Z,6.28
2022-10-10T06:40:41.244Z,6.55
2022-10-10T06:43:13.925Z,5.88
2022-10-10T06:45:47.384Z,6.20
2022-10-10T06:48:15.326Z,6.15
2022-10-10T06:50:42.429Z,6.07
2022-10-10T06:53:09.568Z,6.72
2022-10-10T06:55:36.500Z,6.30
2022-10-10T06:58:03.624Z,6.00
2022-10-10T07:00:30.648Z,5.88
2022-10-10T07:02:57.449Z,5.72
2022-10-10T07:05:24.279Z,6.32
2022-10-10T07:07:53.081Z,6.50
2022-10-10T07:10:19.990Z,5.78
2022-10-10T07:12:46.692Z,6.60
2022-10-10T07:15:13.869Z,5.93
2022-10-10T07:17:40.797Z,5.88
2022-10-10T07:20:08.438Z,6.25
2022-10-10T07:22:35.488Z,6.38
2022-10-10T07:25:02.246Z,5.45
2022-10-10T07:27:29.116Z,5.88
2022-10-10T07:29:56.157Z,6.45
2022-10-10T07:32:22.981Z,5.82
2022-10-10T07:34:50.814Z,6.20
2022-10-10T07:37:17.706Z,6.30
2022-10-10T07:39:44.627Z,5.55
2022-10-10T07:42:11.538Z,5.57
2022-10-10T07:44:38.307Z,6.03
2022-10-10T07:47:05.265Z,5.65
2022-10-10T07:49:31.994Z,6.22
2022-10-10T07:52:00.644Z,6.30
2022-10-10T07:54:31.551Z,6.10
2022-10-10T07:56:58.612Z,6.13
2022-10-10T07:59:25.917Z,6.45
2022-10-10T08:01:53.063Z,6.28
2022-10-10T08:04:20.329Z,5.63
2022-10-10T08:06:48.177Z,6.25
2022-10-10T08:09:15.263Z,6.03
2022-10-10T08:11:41.988Z,6.22
2022-10-10T08:14:09.160Z,6.10
2022-10-10T08:16:35.964Z,6.45
2022-10-10T08:19:03.885Z,5.40
2022-10-10T08:21:30.688Z,6.40
2022-10-10T08:23:57.440Z,6.10
2022-10-10T08:26:24.355Z,6.00
2022-10-10T08:28:51.156Z,5.90
2022-10-10T08:31:21.114Z,5.82
2022-10-10T08:33:50.144Z,6.20
2022-10-10T08:36:21.059Z,6.00
2022-10-10T08:38:48.016Z,5.22
2022-10-10T08:41:53.162Z,5.50
2022-10-10T08:44:44.611Z,6.38
2022-10-10T08:47:20.169Z,5.18
2022-10-10T08:49:53.460Z,5.63
2022-10-10T08:52:48.835Z,5.85
2022-10-10T08:55:32.228Z,5.13
2022-10-10T08:58:07.477Z,5.82
2022-10-10T09:00:44.154Z,6.28
2022-10-10T09:03:28.720Z,5.82
2022-10-10T09:06:26.868Z,5.82
2022-10-10T09:09:06.270Z,5.20
2022-10-10T09:11:50.859Z,7.60
2022-10-10T09:14:35.499Z,5.30
2022-10-10T09:17:02.166Z,5.60
2022-10-10T09:20:09.272Z,6.07
2022-10-10T09:22:53.830Z,5.40
2022-10-10T09:25:29.183Z,6.50
2022-10-10T09:28:38.795Z,5.47
2022-10-10T09:31:19.584Z,5.35
2022-10-10T09:33:59.587Z,9.75
2022-10-10T09:36:34.131Z,12.02
2022-10-10T09:39:16.023Z,7.63
2022-10-10T09:41:49.691Z,6.00
2022-10-10T09:44:20.679Z,5.65
2022-10-10T09:46:47.727Z,5.75
2022-10-10T09:49:17.380Z,5.68
2022-10-10T09:51:45.943Z,5.75
2022-10-10T09:54:17.591Z,6.03
2022-10-10T09:56:58.445Z,6.35
2022-10-10T09:59:46.226Z,5.57
2022-10-10T10:02:23.441Z,5.88
2022-10-10T10:04:52.579Z,5.90
2022-10-10T10:07:25.681Z,5.47
2022-10-10T10:10:10.925Z,5.57
2022-10-10T10:12:42.222Z,5.45
2022-10-10T10:15:25.241Z,5.75
2022-10-10T10:18:25.686Z,5.53
2022-10-10T10:21:02.576Z,5.57
2022-10-10T10:23:50.085Z,5.50
2022-10-10T10:26:40.171Z,4.80
2022-10-10T10:29:33.516Z,4.95
2022-10-10T10:32:13.984Z,4.93
2022-10-10T10:35:32.527Z,5.25
2022-10-10T10:38:42.247Z,4.63
2022-10-10T10:41:36.180Z,5.63
2022-10-10T10:44:40.194Z,4.40
2022-10-10T10:47:49.196Z,4.03
2022-10-10T10:50:54.189Z,4.32
2022-10-10T10:54:09.538Z,4.82
2022-10-10T10:57:06.411Z,4.43
2022-10-10T11:00:33.183Z,4.25
2022-10-10T11:05:20.843Z,3.80
2022-10-10T11:07:19.927Z,4.30
2022-10-10T11:10:24.008Z,4.97
2022-10-10T11:13:32.347Z,5.40
2022-10-10T11:16:10.853Z,5.72
2022-10-10T11:18:47.462Z,5.75
2022-10-10T11:21:31.434Z,4.60
2022-10-10T11:24:11.663Z,4.53
2022-10-10T11:26:45.303Z,5.95
2022-10-10T11:29:47.148Z,4.90
2022-10-10T11:32:30.252Z,5.30
2022-10-10T11:35:42.921Z,4.45
2022-10-10T11:38:41.428Z,4.97
2022-10-10T11:41:33.417Z,4.00
2022-10-10T11:44:19.355Z,4.78
2022-10-10T11:47:21.237Z,4.72
2022-10-10T11:50:11.675Z,4.72
2022-10-10T11:53:20.167Z,4.57
2022-10-10T11:56:04.941Z,5.10
2022-10-10T11:58:56.410Z,5.18
2022-10-10T12:01:49.689Z,4.82
2022-10-10T12:04:16.857Z,5.05
2022-10-10T12:06:57.985Z,6.03
2022-10-10T12:09:43.631Z,4.80
2022-10-10T12:12:24.241Z,5.07
2022-10-10T12:14:56.451Z,6.40
2022-10-10T12:17:35.960Z,6.03
2022-10-10T12:20:14.985Z,5.68
2022-10-10T12:22:42.396Z,4.90
2022-10-10T12:25:40.536Z,5.78
2022-10-10T12:28:13.184Z,5.35
2022-10-10T12:30:58.271Z,5.80
2022-10-10T12:33:31.468Z,5.25
2022-10-10T12:36:20.768Z,5.57
2022-10-10T12:39:07.683Z,4.57
2022-10-10T12:41:49.469Z,4.60
2022-10-10T12:44:40.984Z,4.43
2022-10-10T12:47:16.569Z,3.90
2022-10-10T12:49:57.603Z,3.97
2022-10-10T12:52:35.035Z,3.63
2022-10-10T12:55:29.940Z,4.32
2022-10-10T12:58:03.023Z,4.00
2022-10-10T13:00:41.386Z,3.63
2022-10-10T13:03:31.643Z,3.85
2022-10-10T13:06:15.108Z,3.53
2022-10-10T13:08:42.591Z,3.17
2022-10-10T13:11:14.717Z,2.20
2022-10-10T13:13:54.552Z,2.35
2022-10-10T13:16:33.487Z,2.25
2022-10-10T13:19:00.934Z,1.80
2022-10-10T13:21:34.747Z,2.15
2022-10-10T13:24:05.865Z,1.80
2022-10-10T13:26:53.252Z,2.03
2022-10-10T13:29:30.326Z,1.50
2022-10-10T13:32:14.147Z,1.00
2022-10-10T13:34:48.761Z,0.80
2022-10-10T13:37:18.673Z,0.50
2022-10-10T13:39:47.526Z,0.50
2022-10-10T13:42:39.992Z,0.60
2022-10-10T13:45:30.295Z,0.43
2022-10-10T13:48:03.170Z,0.40
2022-10-10T13:50:53.532Z,0.45
2022-10-10T13:53:30.125Z,0.50
2022-10-10T13:55:59.997Z,0.68
2022-10-10T13:58:32.283Z,0.70
2022-10-10T14:01:02.988Z,0.60
2022-10-10T14:03:33.273Z,0.60
2022-10-10T14:06:00.392Z,0.57
2022-10-10T14:08:33.193Z,0.68
2022-10-10T14:11:08.740Z,0.77
2022-10-10T14:13:38.702Z,0.80
2022-10-10T14:16:17.764Z,0.55
2022-10-10T14:18:46.539Z,0.80
2022-10-10T14:21:13.762Z,1.08
2022-10-10T14:23:40.780Z,1.00
2022-10-10T14:26:16.803Z,0.90
2022-10-10T14:28:44.652Z,1.00
2022-10-10T14:31:12.511Z,0.90
2022-10-10T14:33:39.944Z,1.23
2022-10-10T14:36:07.953Z,0.95
2022-10-10T14:38:35.013Z,1.08
2022-10-10T14:41:02.248Z,1.40
2022-10-10T14:43:29.420Z,1.40
2022-10-10T14:45:56.435Z,1.48
2022-10-10T14:48:23.747Z,1.60
2022-10-10T14:50:51.210Z,1.70
2022-10-10T14:53:18.709Z,1.33
2022-10-10T14:55:46.392Z,1.58
2022-10-10T14:58:21.183Z,1.77
2022-10-10T15:00:51.358Z,1.55
2022-10-10T15:03:18.428Z,1.50
2022-10-10T15:05:45.344Z,1.75
2022-10-10T15:08:15.165Z,2.13
2022-10-10T15:10:43.417Z,1.83
2022-10-10T15:13:11.887Z,1.50
2022-10-10T15:15:38.764Z,2.63
2022-10-10T15:18:16.024Z,2.42
2022-10-10T15:20:53.316Z,2.15
2022-10-10T15:23:20.612Z,2.00
2022-10-10T15:25:47.391Z,2.10
2022-10-10T15:28:14.258Z,2.50
2022-10-10T15:30:45.993Z,3.40
2022-10-10T15:33:12.795Z,1.88
2022-10-10T15:36:03.834Z,1.80
2022-10-10T15:38:27.506Z,2.80
2022-10-10T15:41:06.752Z,2.60
2022-10-10T15:43:51.977Z,1.77
2022-10-10T15:46:29.055Z,1.83
2022-10-10T15:49:01.628Z,2.10
2022-10-10T15:51:29.131Z,1.70
2022-10-10T15:53:58.092Z,2.08
2022-10-10T15:56:25.183Z,1.73
2022-10-10T15:59:01.375Z,1.88
2022-10-10T16:01:30.359Z,1.85
2022-10-10T16:03:58.376Z,2.78
2022-10-10T16:06:25.921Z,1.27
2022-10-10T16:09:10.047Z,1.50
2022-10-10T16:11:39.925Z,1.90
2022-10-10T16:14:06.668Z,1.52
2022-10-10T16:16:33.668Z,2.15
2022-10-10T16:19:00.592Z,2.08
2022-10-10T16:21:27.646Z,1.77
2022-10-10T16:23:57.925Z,2.10
2022-10-10T16:26:33.057Z,1.77
2022-10-10T16:29:01.780Z,1.27
2022-10-10T16:31:30.148Z,1.70
2022-10-10T16:33:59.229Z,2.10
2022-10-10T16:36:31.423Z,1.50
2022-10-10T16:38:59.088Z,1.73
2022-10-10T16:41:46.984Z,2.10
2022-10-10T16:44:15.041Z,2.22
2022-10-10T16:46:41.831Z,2.00
2022-10-10T16:49:11.885Z,1.58
2022-10-10T16:51:38.655Z,1.58
2022-10-10T16:54:06.328Z,1.60
2022-10-10T16:56:34.393Z,2.03
2022-10-10T16:59:02.059Z,2.72
2022-10-10T17:01:29.550Z,3.83
2022-10-10T17:03:59.884Z,3.00
2022-10-10T17:06:31.357Z,3.53
2022-10-10T17:09:02.655Z,11.23
2022-10-10T17:11:29.988Z,5.63
2022-10-10T17:13:57.297Z,3.85
2022-10-10T17:19:14.982Z,5.03
2022-10-10T17:21:41.747Z,5.45
2022-10-10T17:24:08.527Z,5.47
2022-10-10T17:26:35.413Z,6.68
2022-10-10T17:29:02.492Z,6.97
2022-10-10T17:31:29.264Z,7.05
2022-10-10T17:33:57.499Z,6.28
2022-10-10T17:36:27.335Z,5.43
2022-10-10T17:39:00.189Z,5.82
2022-10-10T17:41:28.386Z,5.90
2022-10-10T17:43:55.947Z,5.63
2022-10-10T17:46:35.753Z,4.35
2022-10-10T17:49:06.019Z,4.05
2022-10-10T17:51:34.133Z,3.60
2022-10-10T17:54:03.041Z,3.13
2022-10-10T17:56:30.483Z,2.40
2022-10-10T17:58:59.250Z,2.70
2022-10-10T18:01:26.371Z,2.95
2022-10-10T18:03:53.278Z,2.58
2022-10-10T18:06:23.206Z,2.25
2022-10-10T18:08:52.521Z,2.60
2022-10-10T18:11:25.909Z,2.85
2022-10-10T18:13:53.044Z,4.18
2022-10-10T18:16:22.636Z,4.85
2022-10-10T18:18:51.900Z,4.20
2022-10-10T18:21:22.399Z,5.03
2022-10-10T18:23:49.712Z,4.15
2022-10-10T18:26:26.407Z,7.90
2022-10-10T18:28:55.720Z,7.72
2022-10-10T18:31:33.626Z,5.63
2022-10-10T18:34:01.458Z,5.40
2022-10-10T18:36:32.005Z,5.43
2022-10-10T18:39:01.947Z,5.32
2022-10-10T18:41:33.973Z,5.50
2022-10-10T18:44:06.824Z,5.03
2022-10-10T18:46:35.332Z,4.60
2022-10-10T18:49:04.904Z,4.35
2022-10-10T18:51:31.924Z,3.65
2022-10-10T18:54:04.343Z,3.25
2022-10-10T18:56:32.772Z,3.03
2022-10-10T18:59:02.079Z,2.90
2022-10-10T19:01:33.209Z,2.88
2022-10-10T19:04:00.501Z,2.55
2022-10-10T19:06:27.507Z,2.83
2022-10-10T19:08:57.280Z,2.25
2022-10-10T19:11:34.328Z,2.17
2022-10-10T19:14:04.773Z,2.42
2022-10-10T19:16:32.080Z,2.00
2022-10-10T19:19:00.975Z,2.55
2022-10-10T19:21:31.931Z,2.63
2022-10-10T19:24:00.976Z,2.58
2022-10-10T19:26:33.119Z,2.90
2022-10-10T19:29:06.399Z,2.35
2022-10-10T19:31:35.228Z,4.85
2022-10-10T19:34:02.069Z,8.35
2022-10-10T19:36:29.082Z,8.65
2022-10-10T19:38:58.386Z,12.05
2022-10-10T19:41:25.180Z,10.80
2022-10-10T19:43:52.436Z,7.40
2022-10-10T19:46:22.130Z,6.03
2022-10-10T19:48:50.679Z,5.95
2022-10-10T19:51:19.165Z,6.68
2022-10-10T19:53:46.439Z,5.03
2022-10-10T19:56:21.851Z,4.60
2022-10-10T19:58:48.830Z,4.10
2022-10-10T20:01:18.668Z,4.53
2022-10-10T20:03:48.312Z,4.57
2022-10-10T20:06:18.767Z,4.18
2022-10-10T20:08:46.749Z,3.88
2022-10-10T20:11:15.626Z,3.53
2022-10-10T20:13:42.769Z,3.80
2022-10-10T20:16:11.296Z,3.60
2022-10-10T20:18:42.156Z,3.70
2022-10-10T20:21:23.700Z,2.95
2022-10-10T20:23:51.345Z,4.13
2022-10-10T20:26:22.084Z,4.15
2022-10-10T20:28:51.197Z,4.47
2022-10-10T20:31:23.442Z,4.55
2022-10-10T20:33:52.795Z,4.55
2022-10-10T20:36:21.579Z,5.03
2022-10-10T20:38:56.967Z,4.72
2022-10-10T20:41:26.549Z,4.57
2022-10-10T20:44:03.117Z,4.35
2022-10-10T20:46:34.792Z,4.00
2022-10-10T20:49:08.202Z,3.75
2022-10-10T20:51:35.081Z,4.00
2022-10-10T20:54:05.114Z,4.35
2022-10-10T20:56:34.498Z,4.45
2022-10-10T20:59:02.054Z,4.32
2022-10-10T21:01:30.638Z,4.38
2022-10-10T21:03:58.602Z,4.53
2022-10-10T21:06:32.187Z,4.45
2022-10-10T21:09:03.939Z,4.30
2022-10-10T21:11:30.922Z,3.72
2022-10-10T21:14:00.268Z,4.22
2022-10-10T21:16:31.919Z,5.38
2022-10-10T21:18:59.837Z,7.03
2022-10-10T21:21:30.755Z,7.85
2022-10-10T21:23:57.809Z,7.72
2022-10-10T21:26:27.969Z,8.13
2022-10-10T21:28:55.918Z,8.43
2022-10-10T21:31:26.735Z,8.35
2022-10-10T21:33:54.508Z,6.65
2022-10-10T21:36:24.455Z,5.57
2022-10-10T21:38:51.171Z,5.55
2022-10-10T21:41:21.298Z,6.03
2022-10-10T21:43:54.987Z,5.55
2022-10-10T21:46:28.627Z,6.70
2022-10-10T21:48:58.622Z,9.45
2022-10-10T21:51:26.844Z,8.38
2022-10-10T21:54:00.482Z,5.07
2022-10-10T21:56:27.251Z,4.28
2022-10-10T21:58:57.608Z,5.05
2022-10-10T22:01:27.909Z,5.78
2022-10-10T22:03:56.201Z,5.70
2022-10-10T22:06:25.132Z,5.88
2022-10-10T22:08:56.292Z,5.05
2022-10-10T22:11:26.284Z,4.95
2022-10-10T22:13:53.399Z,5.00
2022-10-10T22:16:21.527Z,4.60
2022-10-10T22:18:52.690Z,3.92
2022-10-10T22:21:19.440Z,4.20
2022-10-10T22:23:46.320Z,4.15
2022-10-10T22:26:16.568Z,3.85
2022-10-10T22:28:45.422Z,3.70
2022-10-10T22:31:16.008Z,3.60
2022-10-10T22:33:42.900Z,3.13
2022-10-10T22:36:10.899Z,3.20
2022-10-10T22:38:41.773Z,4.57
2022-10-10T22:41:10.001Z,4.18
2022-10-10T22:43:37.347Z,6.95
2022-10-10T22:46:04.875Z,7.65
2022-10-10T22:48:31.958Z,6.15
2022-10-10T22:51:13.922Z,4.47
2022-10-10T22:53:43.192Z,3.92
2022-10-10T22:56:12.220Z,3.42
2022-10-10T22:58:38.974Z,4.07
2022-10-10T23:01:14.807Z,4.28
2022-10-10T23:03:42.447Z,4.40
2022-10-10T23:06:09.891Z,5.07
2022-10-10T23:08:37.487Z,5.72
2022-10-10T23:11:04.934Z,5.40
2022-10-10T23:13:32.381Z,4.93
2022-10-10T23:15:59.259Z,4.18
2022-10-10T23:18:29.072Z,4.47
2022-10-10T23:20:56.851Z,4.32
2022-10-10T23:23:24.279Z,3.88
2022-10-10T23:25:51.140Z,3.78
2022-10-10T23:28:18.713Z,4.70
2022-10-10T23:30:48.253Z,4.32
2022-10-10T23:33:16.871Z,4.60
2022-10-10T23:35:43.677Z,3.65
2022-10-10T23:38:10.827Z,3.65
2022-10-10T23:40:37.587Z,3.47
2022-10-10T23:43:04.500Z,3.60
2022-10-10T23:45:31.283Z,3.60
2022-10-10T23:47:58.068Z,3.50
2022-10-10T23:50:24.935Z,2.90
2022-10-10T23:52:51.673Z,3.00
2022-10-10T23:55:18.468Z,3.20
2022-10-10T23:57:45.265Z,2.72
